Memphis (MEM/KMEM)

Map

Destinations

Information

Location
Memphis, TN
Local Time
17:30 / 5:30 pm
GMT Time
22:30 / 10:30 pm
Gates
Unassigned
No FAA reported delays
METAR KMEM 272154Z 25015G24KT 10SM FEW045 SCT250 27/16 A2976 RMK AO2 PK WND 27028/2112 SLP072 T02720161
TAF KMEM 272059Z 2721/2818 22015G25KT P6SM VCTS SCT045CB BKN250 FM280100 29010KT P6SM SCT070 FM280600 31003KT P6SM SCT025 TEMPO 2808/2812 3SM BR FM281200 02005KT P6SM SCT015 TEMPO 2812/2816 BKN015
  • No charts available